sensor_id;sensor_type;location;lat;lon;timestamp;pressure;altitude;pressure_sealevel;temperature;humidity
6094;BME280;19964;42.060;24.700;2022-07-05T00:01:18;97647.38;;;19.25;61.38
6094;BME280;19964;42.060;24.700;2022-07-05T00:03:45;97650.66;;;19.46;60.98
6094;BME280;19964;42.060;24.700;2022-07-05T00:06:11;97653.22;;;19.22;61.69
6094;BME280;19964;42.060;24.700;2022-07-05T00:08:38;97649.91;;;19.07;62.24
6094;BME280;19964;42.060;24.700;2022-07-05T00:11:05;97651.09;;;18.91;63.07
6094;BME280;19964;42.060;24.700;2022-07-05T00:13:32;97644.41;;;18.70;63.98
6094;BME280;19964;42.060;24.700;2022-07-05T00:16:00;97650.41;;;18.75;64.29
6094;BME280;19964;42.060;24.700;2022-07-05T00:18:27;97622.31;;;18.76;63.96
6094;BME280;19964;42.060;24.700;2022-07-05T00:20:54;97645.31;;;18.94;63.90
6094;BME280;19964;42.060;24.700;2022-07-05T00:23:21;97648.66;;;18.99;64.45
6094;BME280;19964;42.060;24.700;2022-07-05T00:25:48;97632.72;;;18.91;64.49
6094;BME280;19964;42.060;24.700;2022-07-05T00:28:15;97631.16;;;18.90;64.89
6094;BME280;19964;42.060;24.700;2022-07-05T00:30:42;97634.47;;;19.00;64.74
6094;BME280;19964;42.060;24.700;2022-07-05T00:33:10;97638.94;;;19.00;64.48
6094;BME280;19964;42.060;24.700;2022-07-05T00:35:37;97611.38;;;18.63;64.91
6094;BME280;19964;42.060;24.700;2022-07-05T00:38:04;97642.19;;;18.87;65.15
6094;BME280;19964;42.060;24.700;2022-07-05T00:40:30;97638.41;;;18.64;66.04
6094;BME280;19964;42.060;24.700;2022-07-05T00:42:57;97627.63;;;18.65;66.01
6094;BME280;19964;42.060;24.700;2022-07-05T00:45:24;97632.59;;;18.72;65.97
6094;BME280;19964;42.060;24.700;2022-07-05T00:47:51;97620.56;;;18.66;66.83
6094;BME280;19964;42.060;24.700;2022-07-05T00:50:20;97625.06;;;18.60;67.56
6094;BME280;19964;42.060;24.700;2022-07-05T00:52:46;97613.69;;;18.26;68.70
6094;BME280;19964;42.060;24.700;2022-07-05T00:55:15;97612.31;;;18.39;68.01
6094;BME280;19964;42.060;24.700;2022-07-05T00:57:42;97609.38;;;18.50;67.80
6094;BME280;19964;42.060;24.700;2022-07-05T01:00:10;97609.28;;;18.65;67.02
6094;BME280;19964;42.060;24.700;2022-07-05T01:02:37;97614.25;;;18.67;66.95
6094;BME280;19964;42.060;24.700;2022-07-05T01:05:04;97606.59;;;18.71;66.80
6094;BME280;19964;42.060;24.700;2022-07-05T01:07:34;97616.06;;;18.72;66.73
6094;BME280;19964;42.060;24.700;2022-07-05T01:10:01;97605.28;;;18.73;67.11
6094;BME280;19964;42.060;24.700;2022-07-05T01:12:28;97604.25;;;18.69;67.06
6094;BME280;19964;42.060;24.700;2022-07-05T01:14:56;97603.00;;;18.61;66.93
6094;BME280;19964;42.060;24.700;2022-07-05T01:17:23;97602.47;;;18.59;67.71
6094;BME280;19964;42.060;24.700;2022-07-05T01:19:50;97605.09;;;18.59;67.39
6094;BME280;19964;42.060;24.700;2022-07-05T01:22:18;97601.00;;;18.48;67.65
6094;BME280;19964;42.060;24.700;2022-07-05T01:24:49;97587.63;;;18.45;68.04
6094;BME280;19964;42.060;24.700;2022-07-05T01:27:17;97587.91;;;18.38;68.87
6094;BME280;19964;42.060;24.700;2022-07-05T01:29:44;97587.69;;;18.30;68.73
6094;BME280;19964;42.060;24.700;2022-07-05T01:32:12;97599.91;;;18.49;68.24
6094;BME280;19964;42.060;24.700;2022-07-05T01:34:40;97597.63;;;18.43;68.27
6094;BME280;19964;42.060;24.700;2022-07-05T01:37:08;97578.31;;;18.19;68.70
6094;BME280;19964;42.060;24.700;2022-07-05T01:39:35;97500.22;;;17.62;69.20
6094;BME280;19964;42.060;24.700;2022-07-05T01:42:04;97587.25;;;18.18;69.27
6094;BME280;19964;42.060;24.700;2022-07-05T01:44:31;97576.75;;;18.13;69.59
6094;BME280;19964;42.060;24.700;2022-07-05T01:47:06;97578.13;;;18.05;70.21
6094;BME280;19964;42.060;24.700;2022-07-05T01:49:39;97579.16;;;18.04;70.41
6094;BME280;19964;42.060;24.700;2022-07-05T01:52:09;97583.69;;;17.94;70.69
6094;BME280;19964;42.060;24.700;2022-07-05T01:54:36;97568.28;;;17.77;71.52
6094;BME280;19964;42.060;24.700;2022-07-05T01:57:07;97589.00;;;17.78;71.78
6094;BME280;19964;42.060;24.700;2022-07-05T01:59:35;97572.47;;;17.73;71.77
6094;BME280;19964;42.060;24.700;2022-07-05T02:02:03;97582.72;;;17.74;71.94
6094;BME280;19964;42.060;24.700;2022-07-05T02:04:30;97592.38;;;17.84;71.71
6094;BME280;19964;42.060;24.700;2022-07-05T02:06:57;97545.06;;;17.50;71.52
6094;BME280;19964;42.060;24.700;2022-07-05T02:09:24;97555.50;;;17.60;71.52
6094;BME280;19964;42.060;24.700;2022-07-05T02:11:51;97598.16;;;17.76;71.97
6094;BME280;19964;42.060;24.700;2022-07-05T02:14:19;97576.44;;;17.65;71.96
6094;BME280;19964;42.060;24.700;2022-07-05T02:16:46;97591.13;;;17.66;72.32
6094;BME280;19964;42.060;24.700;2022-07-05T02:19:13;97595.84;;;17.64;72.59
6094;BME280;19964;42.060;24.700;2022-07-05T02:21:40;97601.34;;;17.68;73.03
6094;BME280;19964;42.060;24.700;2022-07-05T02:24:08;97589.56;;;17.55;73.19
6094;BME280;19964;42.060;24.700;2022-07-05T02:26:35;97610.28;;;17.52;73.65
6094;BME280;19964;42.060;24.700;2022-07-05T02:29:02;97612.88;;;17.67;72.80
6094;BME280;19964;42.060;24.700;2022-07-05T02:31:30;97599.81;;;17.52;73.37
6094;BME280;19964;42.060;24.700;2022-07-05T02:33:58;97578.59;;;17.38;73.53
6094;BME280;19964;42.060;24.700;2022-07-05T02:36:24;97617.63;;;17.55;74.12
6094;BME280;19964;42.060;24.700;2022-07-05T02:38:51;97617.84;;;17.68;73.56
6094;BME280;19964;42.060;24.700;2022-07-05T02:41:19;97594.81;;;17.55;72.93
6094;BME280;19964;42.060;24.700;2022-07-05T02:43:45;97617.03;;;17.73;74.36
6094;BME280;19964;42.060;24.700;2022-07-05T02:46:12;97614.59;;;18.02;73.18
6094;BME280;19964;42.060;24.700;2022-07-05T02:48:40;97606.09;;;18.25;72.34
6094;BME280;19964;42.060;24.700;2022-07-05T02:51:07;97603.28;;;18.11;72.07
6094;BME280;19964;42.060;24.700;2022-07-05T02:53:34;97603.06;;;17.98;71.98
6094;BME280;19964;42.060;24.700;2022-07-05T02:56:01;97600.09;;;18.14;71.36
6094;BME280;19964;42.060;24.700;2022-07-05T02:58:28;97605.00;;;18.26;71.29
6094;BME280;19964;42.060;24.700;2022-07-05T03:00:55;97611.50;;;18.43;70.51
6094;BME280;19964;42.060;24.700;2022-07-05T03:03:22;97610.41;;;18.49;70.28
6094;BME280;19964;42.060;24.700;2022-07-05T03:05:50;97602.09;;;18.32;71.35
6094;BME280;19964;42.060;24.700;2022-07-05T03:08:17;97612.03;;;18.35;70.74
6094;BME280;19964;42.060;24.700;2022-07-05T03:10:44;97616.91;;;18.57;70.63
6094;BME280;19964;42.060;24.700;2022-07-05T03:13:11;97622.84;;;18.78;70.92
6094;BME280;19964;42.060;24.700;2022-07-05T03:15:38;97607.25;;;18.52;69.87
6094;BME280;19964;42.060;24.700;2022-07-05T03:18:05;97611.34;;;18.68;69.48
6094;BME280;19964;42.060;24.700;2022-07-05T03:20:32;97620.56;;;18.66;69.85
6094;BME280;19964;42.060;24.700;2022-07-05T03:23:00;97598.03;;;18.55;69.97
6094;BME280;19964;42.060;24.700;2022-07-05T03:25:27;97621.53;;;18.75;70.32
6094;BME280;19964;42.060;24.700;2022-07-05T03:27:54;97622.72;;;18.93;70.05
6094;BME280;19964;42.060;24.700;2022-07-05T03:30:20;97597.25;;;18.93;69.45
6094;BME280;19964;42.060;24.700;2022-07-05T03:32:48;97615.22;;;19.10;69.73
6094;BME280;19964;42.060;24.700;2022-07-05T03:35:15;97614.47;;;19.04;70.02
6094;BME280;19964;42.060;24.700;2022-07-05T03:37:42;97619.06;;;19.22;69.88
6094;BME280;19964;42.060;24.700;2022-07-05T03:40:11;97599.56;;;19.28;69.34
6094;BME280;19964;42.060;24.700;2022-07-05T03:42:37;97608.72;;;19.02;70.31
6094;BME280;19964;42.060;24.700;2022-07-05T03:45:05;97617.16;;;18.99;70.86
6094;BME280;19964;42.060;24.700;2022-07-05T03:47:32;97590.34;;;19.31;70.50
6094;BME280;19964;42.060;24.700;2022-07-05T03:50:02;97611.38;;;19.83;69.55
6094;BME280;19964;42.060;24.700;2022-07-05T03:52:29;97616.00;;;19.91;69.27
6094;BME280;19964;42.060;24.700;2022-07-05T03:54:56;97611.97;;;20.17;68.59
6094;BME280;19964;42.060;24.700;2022-07-05T03:57:24;97612.09;;;20.31;68.42
6094;BME280;19964;42.060;24.700;2022-07-05T03:59:51;97617.28;;;20.55;67.33
6094;BME280;19964;42.060;24.700;2022-07-05T04:02:18;97613.22;;;20.81;67.36
6094;BME280;19964;42.060;24.700;2022-07-05T04:04:45;97605.63;;;20.93;67.59
6094;BME280;19964;42.060;24.700;2022-07-05T04:07:12;97609.50;;;20.82;66.73
6094;BME280;19964;42.060;24.700;2022-07-05T04:09:38;97604.78;;;20.97;67.03
6094;BME280;19964;42.060;24.700;2022-07-05T04:12:06;97606.81;;;21.19;66.72
6094;BME280;19964;42.060;24.700;2022-07-05T04:14:34;97602.38;;;21.33;65.87
6094;BME280;19964;42.060;24.700;2022-07-05T04:17:01;97592.03;;;21.64;65.44
6094;BME280;19964;42.060;24.700;2022-07-05T04:19:28;97596.94;;;21.84;64.89
6094;BME280;19964;42.060;24.700;2022-07-05T04:21:55;97600.38;;;21.98;64.36
6094;BME280;19964;42.060;24.700;2022-07-05T04:24:22;97601.88;;;22.26;63.91
6094;BME280;19964;42.060;24.700;2022-07-05T04:26:49;97594.00;;;22.48;63.95
6094;BME280;19964;42.060;24.700;2022-07-05T04:29:16;97579.50;;;22.59;62.56
6094;BME280;19964;42.060;24.700;2022-07-05T04:31:44;97575.84;;;22.69;62.58
6094;BME280;19964;42.060;24.700;2022-07-05T04:34:11;97588.81;;;23.01;62.12
6094;BME280;19964;42.060;24.700;2022-07-05T04:36:38;97580.34;;;23.21;61.50
6094;BME280;19964;42.060;24.700;2022-07-05T04:39:06;97582.66;;;23.45;60.98
6094;BME280;19964;42.060;24.700;2022-07-05T04:41:33;97582.56;;;23.58;60.61
6094;BME280;19964;42.060;24.700;2022-07-05T04:44:00;97573.78;;;23.88;59.67
6094;BME280;19964;42.060;24.700;2022-07-05T04:46:27;97575.72;;;24.14;59.00
6094;BME280;19964;42.060;24.700;2022-07-05T04:48:55;97582.59;;;24.32;59.46
6094;BME280;19964;42.060;24.700;2022-07-05T04:51:22;97579.63;;;24.67;58.89
6094;BME280;19964;42.060;24.700;2022-07-05T04:53:49;97578.84;;;25.01;57.53
6094;BME280;19964;42.060;24.700;2022-07-05T04:56:16;97583.84;;;24.60;57.76
6094;BME280;19964;42.060;24.700;2022-07-05T04:58:43;97578.69;;;23.64;60.15
6094;BME280;19964;42.060;24.700;2022-07-05T05:01:09;97593.53;;;23.82;59.33
6094;BME280;19964;42.060;24.700;2022-07-05T05:03:36;97605.63;;;23.58;60.13
6094;BME280;19964;42.060;24.700;2022-07-05T05:06:04;97609.97;;;23.62;59.66
6094;BME280;19964;42.060;24.700;2022-07-05T05:08:31;97587.00;;;23.80;60.71
6094;BME280;19964;42.060;24.700;2022-07-05T05:10:58;97610.94;;;24.14;56.38
6094;BME280;19964;42.060;24.700;2022-07-05T05:13:25;97613.88;;;24.04;58.29
6094;BME280;19964;42.060;24.700;2022-07-05T05:15:52;97621.03;;;24.04;57.51
6094;BME280;19964;42.060;24.700;2022-07-05T05:18:19;97615.78;;;24.46;56.08
6094;BME280;19964;42.060;24.700;2022-07-05T05:20:49;97616.13;;;24.88;54.76
6094;BME280;19964;42.060;24.700;2022-07-05T05:23:17;97618.75;;;25.22;54.13
6094;BME280;19964;42.060;24.700;2022-07-05T05:25:44;97595.53;;;24.67;54.36
6094;BME280;19964;42.060;24.700;2022-07-05T05:28:11;97624.06;;;25.05;54.05
6094;BME280;19964;42.060;24.700;2022-07-05T05:30:38;97608.03;;;24.84;53.02
6094;BME280;19964;42.060;24.700;2022-07-05T05:33:05;97616.28;;;24.91;54.79
6094;BME280;19964;42.060;24.700;2022-07-05T05:35:32;97630.16;;;24.71;55.84
6094;BME280;19964;42.060;24.700;2022-07-05T05:37:58;97622.66;;;24.64;56.68
6094;BME280;19964;42.060;24.700;2022-07-05T05:40:27;97630.94;;;24.46;56.37
6094;BME280;19964;42.060;24.700;2022-07-05T05:42:54;97628.72;;;25.16;55.63
6094;BME280;19964;42.060;24.700;2022-07-05T05:45:22;97633.84;;;25.30;58.01
6094;BME280;19964;42.060;24.700;2022-07-05T05:47:50;97639.75;;;25.52;54.66
6094;BME280;19964;42.060;24.700;2022-07-05T05:50:18;97640.38;;;25.87;54.11
6094;BME280;19964;42.060;24.700;2022-07-05T05:52:46;97603.72;;;26.10;51.82
6094;BME280;19964;42.060;24.700;2022-07-05T05:55:13;97638.72;;;26.62;50.51
6094;BME280;19964;42.060;24.700;2022-07-05T05:57:41;97649.53;;;26.07;52.36
6094;BME280;19964;42.060;24.700;2022-07-05T06:00:09;97649.19;;;26.37;51.91
6094;BME280;19964;42.060;24.700;2022-07-05T06:02:36;97659.19;;;26.40;51.48
6094;BME280;19964;42.060;24.700;2022-07-05T06:05:03;97655.06;;;26.93;50.88
6094;BME280;19964;42.060;24.700;2022-07-05T06:07:31;97653.63;;;26.95;50.70
6094;BME280;19964;42.060;24.700;2022-07-05T06:09:57;97619.97;;;26.37;51.03
6094;BME280;19964;42.060;24.700;2022-07-05T06:12:24;97605.41;;;25.85;53.17
6094;BME280;19964;42.060;24.700;2022-07-05T06:14:52;97633.38;;;26.41;51.92
6094;BME280;19964;42.060;24.700;2022-07-05T06:17:19;97640.53;;;26.90;51.04
6094;BME280;19964;42.060;24.700;2022-07-05T06:19:46;97641.41;;;27.27;50.35
6094;BME280;19964;42.060;24.700;2022-07-05T06:22:13;97638.97;;;27.22;49.07
6094;BME280;19964;42.060;24.700;2022-07-05T06:24:39;97580.22;;;26.20;50.59
6094;BME280;19964;42.060;24.700;2022-07-05T06:27:06;97627.47;;;27.30;49.40
6094;BME280;19964;42.060;24.700;2022-07-05T06:29:33;97619.34;;;27.14;49.30
6094;BME280;19964;42.060;24.700;2022-07-05T06:32:01;97623.09;;;27.46;49.57
6094;BME280;19964;42.060;24.700;2022-07-05T06:34:28;97611.56;;;27.78;49.02
6094;BME280;19964;42.060;24.700;2022-07-05T06:36:55;97587.00;;;27.37;49.27
6094;BME280;19964;42.060;24.700;2022-07-05T06:39:22;97612.25;;;27.18;50.13
6094;BME280;19964;42.060;24.700;2022-07-05T06:41:49;97611.25;;;27.11;50.02
6094;BME280;19964;42.060;24.700;2022-07-05T06:44:16;97611.44;;;26.73;51.04
6094;BME280;19964;42.060;24.700;2022-07-05T06:46:43;97600.50;;;27.31;52.85
6094;BME280;19964;42.060;24.700;2022-07-05T06:49:11;97611.16;;;28.00;50.73
6094;BME280;19964;42.060;24.700;2022-07-05T06:51:37;97616.22;;;27.57;50.43
6094;BME280;19964;42.060;24.700;2022-07-05T06:54:04;97615.34;;;27.65;50.25
6094;BME280;19964;42.060;24.700;2022-07-05T06:56:31;97606.78;;;27.84;50.81
6094;BME280;19964;42.060;24.700;2022-07-05T06:58:58;97611.69;;;28.18;50.48
6094;BME280;19964;42.060;24.700;2022-07-05T07:01:25;97597.81;;;28.52;48.80
6094;BME280;19964;42.060;24.700;2022-07-05T07:03:51;97583.19;;;28.06;48.52
6094;BME280;19964;42.060;24.700;2022-07-05T07:06:20;97589.19;;;28.55;49.16
6094;BME280;19964;42.060;24.700;2022-07-05T07:08:47;97590.56;;;29.20;47.81
6094;BME280;19964;42.060;24.700;2022-07-05T07:11:32;97589.13;;;29.85;47.37
6094;BME280;19964;42.060;24.700;2022-07-05T07:13:59;97591.13;;;29.72;45.55
6094;BME280;19964;42.060;24.700;2022-07-05T07:16:25;97588.44;;;29.26;48.33
6094;BME280;19964;42.060;24.700;2022-07-05T07:18:52;97592.56;;;30.01;46.51
6094;BME280;19964;42.060;24.700;2022-07-05T07:21:20;97598.84;;;29.62;45.10
6094;BME280;19964;42.060;24.700;2022-07-05T07:23:47;97588.78;;;29.55;46.12
6094;BME280;19964;42.060;24.700;2022-07-05T07:26:14;97582.38;;;28.85;46.22
6094;BME280;19964;42.060;24.700;2022-07-05T07:28:41;97589.31;;;29.76;48.01
6094;BME280;19964;42.060;24.700;2022-07-05T07:31:07;97594.72;;;29.33;48.12
6094;BME280;19964;42.060;24.700;2022-07-05T07:33:34;97593.94;;;29.17;47.69
6094;BME280;19964;42.060;24.700;2022-07-05T07:36:01;97599.28;;;28.89;47.85
6094;BME280;19964;42.060;24.700;2022-07-05T07:38:30;97593.09;;;29.29;45.88
6094;BME280;19964;42.060;24.700;2022-07-05T07:40:57;97599.56;;;29.59;47.00
6094;BME280;19964;42.060;24.700;2022-07-05T07:43:25;97605.88;;;30.17;47.53
6094;BME280;19964;42.060;24.700;2022-07-05T07:45:52;97603.13;;;30.48;43.88
6094;BME280;19964;42.060;24.700;2022-07-05T07:48:19;97611.22;;;30.51;43.38
6094;BME280;19964;42.060;24.700;2022-07-05T07:50:46;97591.69;;;29.97;42.33
6094;BME280;19964;42.060;24.700;2022-07-05T07:53:13;97610.69;;;29.92;43.50
6094;BME280;19964;42.060;24.700;2022-07-05T07:55:41;97612.69;;;30.14;44.48
6094;BME280;19964;42.060;24.700;2022-07-05T07:58:08;97608.97;;;30.92;45.35
6094;BME280;19964;42.060;24.700;2022-07-05T08:00:35;97615.63;;;31.39;43.97
6094;BME280;19964;42.060;24.700;2022-07-05T08:03:02;97623.06;;;31.95;39.67
6094;BME280;19964;42.060;24.700;2022-07-05T08:05:29;97630.88;;;32.59;39.70
6094;BME280;19964;42.060;24.700;2022-07-05T08:07:55;97632.63;;;31.96;36.51
6094;BME280;19964;42.060;24.700;2022-07-05T08:10:23;97626.75;;;32.13;40.33
6094;BME280;19964;42.060;24.700;2022-07-05T08:12:51;97630.16;;;31.87;38.69
6094;BME280;19964;42.060;24.700;2022-07-05T08:15:18;97588.63;;;30.68;40.21
6094;BME280;19964;42.060;24.700;2022-07-05T08:17:44;97624.22;;;31.29;38.26
6094;BME280;19964;42.060;24.700;2022-07-05T08:20:25;97640.44;;;31.82;38.92
6094;BME280;19964;42.060;24.700;2022-07-05T08:23:09;97633.13;;;31.79;37.94
6094;BME280;19964;42.060;24.700;2022-07-05T08:25:36;97635.19;;;32.41;37.19
6094;BME280;19964;42.060;24.700;2022-07-05T08:28:04;97625.25;;;32.15;36.91
6094;BME280;19964;42.060;24.700;2022-07-05T08:30:31;97628.28;;;31.88;37.58
6094;BME280;19964;42.060;24.700;2022-07-05T08:32:58;97628.72;;;31.67;38.80
6094;BME280;19964;42.060;24.700;2022-07-05T08:35:25;97633.84;;;31.53;35.46
6094;BME280;19964;42.060;24.700;2022-07-05T08:37:52;97629.19;;;31.95;34.53
6094;BME280;19964;42.060;24.700;2022-07-05T08:40:22;97629.97;;;32.52;35.03
6094;BME280;19964;42.060;24.700;2022-07-05T08:42:53;97614.69;;;33.22;32.97
6094;BME280;19964;42.060;24.700;2022-07-05T08:45:25;97622.66;;;32.78;33.48
6094;BME280;19964;42.060;24.700;2022-07-05T08:47:53;97619.75;;;32.94;36.44
6094;BME280;19964;42.060;24.700;2022-07-05T08:50:22;97613.75;;;32.71;34.06
6094;BME280;19964;42.060;24.700;2022-07-05T08:52:51;97613.34;;;32.98;32.92
6094;BME280;19964;42.060;24.700;2022-07-05T08:55:19;97606.03;;;32.99;34.72
6094;BME280;19964;42.060;24.700;2022-07-05T08:57:46;97602.78;;;32.83;32.88
6094;BME280;19964;42.060;24.700;2022-07-05T09:00:14;97593.25;;;33.69;34.06
6094;BME280;19964;42.060;24.700;2022-07-05T09:02:42;97588.19;;;33.17;34.65
6094;BME280;19964;42.060;24.700;2022-07-05T09:05:12;97596.03;;;32.96;33.03
6094;BME280;19964;42.060;24.700;2022-07-05T09:07:48;97568.78;;;33.38;35.56
6094;BME280;19964;42.060;24.700;2022-07-05T09:10:19;97590.81;;;34.01;33.04
6094;BME280;19964;42.060;24.700;2022-07-05T09:12:48;97568.28;;;33.21;36.83
6094;BME280;19964;42.060;24.700;2022-07-05T09:15:15;97585.69;;;32.65;34.29
6094;BME280;19964;42.060;24.700;2022-07-05T09:17:43;97580.50;;;33.59;33.06
6094;BME280;19964;42.060;24.700;2022-07-05T09:20:12;97559.03;;;34.28;34.61
6094;BME280;19964;42.060;24.700;2022-07-05T09:22:43;97580.56;;;33.22;35.05
6094;BME280;19964;42.060;24.700;2022-07-05T09:25:18;97570.19;;;33.21;37.00
6094;BME280;19964;42.060;24.700;2022-07-05T09:27:51;97573.97;;;34.11;33.84
6094;BME280;19964;42.060;24.700;2022-07-05T09:30:29;97576.66;;;34.07;33.57
6094;BME280;19964;42.060;24.700;2022-07-05T09:33:03;97578.22;;;33.61;32.74
6094;BME280;19964;42.060;24.700;2022-07-05T09:35:30;97578.69;;;33.74;33.21
6094;BME280;19964;42.060;24.700;2022-07-05T09:37:58;97575.72;;;33.89;33.63
6094;BME280;19964;42.060;24.700;2022-07-05T09:40:25;97559.56;;;32.62;36.18
6094;BME280;19964;42.060;24.700;2022-07-05T09:42:52;97559.69;;;33.05;34.87
6094;BME280;19964;42.060;24.700;2022-07-05T09:45:22;97564.78;;;33.17;36.29
6094;BME280;19964;42.060;24.700;2022-07-05T09:47:49;97558.25;;;32.82;39.02
6094;BME280;19964;42.060;24.700;2022-07-05T09:50:36;97557.41;;;33.07;36.62
6094;BME280;19964;42.060;24.700;2022-07-05T09:53:03;97530.97;;;33.60;34.66
6094;BME280;19964;42.060;24.700;2022-07-05T09:55:30;97551.84;;;33.34;35.12
6094;BME280;19964;42.060;24.700;2022-07-05T09:57:58;97517.03;;;33.00;34.56
6094;BME280;19964;42.060;24.700;2022-07-05T10:00:25;97551.53;;;33.42;33.01
6094;BME280;19964;42.060;24.700;2022-07-05T10:02:54;97550.47;;;33.06;34.40
6094;BME280;19964;42.060;24.700;2022-07-05T10:05:28;97550.19;;;33.18;34.77
6094;BME280;19964;42.060;24.700;2022-07-05T10:07:57;97546.69;;;33.14;34.72
6094;BME280;19964;42.060;24.700;2022-07-05T10:10:25;97507.72;;;32.54;34.87
6094;BME280;19964;42.060;24.700;2022-07-05T10:12:53;97538.03;;;32.95;35.23
6094;BME280;19964;42.060;24.700;2022-07-05T10:15:23;97549.13;;;32.53;35.07
6094;BME280;19964;42.060;24.700;2022-07-05T10:17:53;97543.28;;;33.17;33.75
6094;BME280;19964;42.060;24.700;2022-07-05T10:20:25;97529.41;;;32.75;34.80
6094;BME280;19964;42.060;24.700;2022-07-05T10:22:56;97533.31;;;32.45;35.45
6094;BME280;19964;42.060;24.700;2022-07-05T10:25:27;97531.69;;;32.73;37.65
6094;BME280;19964;42.060;24.700;2022-07-05T10:27:54;97538.50;;;32.64;33.78
6094;BME280;19964;42.060;24.700;2022-07-05T10:30:22;97526.06;;;32.85;35.73
6094;BME280;19964;42.060;24.700;2022-07-05T10:32:49;97531.16;;;32.57;34.56
6094;BME280;19964;42.060;24.700;2022-07-05T10:35:17;97524.06;;;33.12;36.21
6094;BME280;19964;42.060;24.700;2022-07-05T10:37:46;97528.09;;;32.59;35.76
6094;BME280;19964;42.060;24.700;2022-07-05T10:40:15;97524.66;;;33.39;35.81
6094;BME280;19964;42.060;24.700;2022-07-05T10:42:46;97524.13;;;32.82;36.74
6094;BME280;19964;42.060;24.700;2022-07-05T10:45:28;97518.69;;;33.12;35.22
6094;BME280;19964;42.060;24.700;2022-07-05T10:48:18;97517.00;;;32.60;36.57
6094;BME280;19964;42.060;24.700;2022-07-05T10:50:47;97514.75;;;33.02;35.13
6094;BME280;19964;42.060;24.700;2022-07-05T10:53:19;97504.00;;;32.32;36.23
6094;BME280;19964;42.060;24.700;2022-07-05T10:55:50;97505.13;;;32.98;36.48
6094;BME280;19964;42.060;24.700;2022-07-05T10:58:21;97506.06;;;32.79;38.49
6094;BME280;19964;42.060;24.700;2022-07-05T11:03:53;97511.41;;;32.76;35.87
6094;BME280;19964;42.060;24.700;2022-07-05T11:06:23;97506.94;;;32.54;36.46
6094;BME280;19964;42.060;24.700;2022-07-05T11:09:15;97500.38;;;32.48;37.05
6094;BME280;19964;42.060;24.700;2022-07-05T11:12:02;97491.22;;;32.52;36.00
6094;BME280;19964;42.060;24.700;2022-07-05T11:14:34;97446.28;;;32.86;36.14
6094;BME280;19964;42.060;24.700;2022-07-05T11:17:23;97479.41;;;32.97;35.32
6094;BME280;19964;42.060;24.700;2022-07-05T11:20:12;97487.25;;;32.79;36.05
6094;BME280;19964;42.060;24.700;2022-07-05T11:22:41;97469.97;;;32.40;36.42
6094;BME280;19964;42.060;24.700;2022-07-05T11:25:27;97476.28;;;32.21;36.50
6094;BME280;19964;42.060;24.700;2022-07-05T11:28:11;97466.31;;;32.18;35.72
6094;BME280;19964;42.060;24.700;2022-07-05T11:30:52;97468.94;;;32.48;36.80
6094;BME280;19964;42.060;24.700;2022-07-05T11:33:36;97470.53;;;32.53;36.54
6094;BME280;19964;42.060;24.700;2022-07-05T11:36:05;97473.50;;;32.44;37.28
6094;BME280;19964;42.060;24.700;2022-07-05T11:38:33;97444.69;;;31.78;36.69
6094;BME280;19964;42.060;24.700;2022-07-05T11:41:11;97468.94;;;32.15;36.82
6094;BME280;19964;42.060;24.700;2022-07-05T11:43:40;97459.34;;;32.14;36.60
6094;BME280;19964;42.060;24.700;2022-07-05T11:46:07;97446.16;;;32.35;36.76
6094;BME280;19964;42.060;24.700;2022-07-05T11:48:35;97405.13;;;31.68;38.47
6094;BME280;19964;42.060;24.700;2022-07-05T11:51:13;97451.94;;;32.04;38.31
6094;BME280;19964;42.060;24.700;2022-07-05T11:53:40;97440.59;;;31.88;37.20
6094;BME280;19964;42.060;24.700;2022-07-05T11:56:09;97451.28;;;31.54;38.54
6094;BME280;19964;42.060;24.700;2022-07-05T11:58:36;97446.78;;;31.62;38.65
6094;BME280;19964;42.060;24.700;2022-07-05T12:01:04;97441.38;;;31.58;39.27
6094;BME280;19964;42.060;24.700;2022-07-05T12:03:33;97447.97;;;31.38;39.22
6094;BME280;19964;42.060;24.700;2022-07-05T12:06:11;97453.69;;;31.63;40.57
6094;BME280;19964;42.060;24.700;2022-07-05T12:08:39;97439.47;;;31.59;38.54
6094;BME280;19964;42.060;24.700;2022-07-05T12:11:10;97429.03;;;31.80;38.69
6094;BME280;19964;42.060;24.700;2022-07-05T12:13:54;97431.94;;;31.98;38.54
6094;BME280;19964;42.060;24.700;2022-07-05T12:16:23;97426.38;;;32.13;37.80
6094;BME280;19964;42.060;24.700;2022-07-05T12:18:52;97391.34;;;31.96;39.16
6094;BME280;19964;42.060;24.700;2022-07-05T12:21:20;97433.00;;;32.23;38.32
6094;BME280;19964;42.060;24.700;2022-07-05T12:23:49;97434.25;;;32.32;38.04
6094;BME280;19964;42.060;24.700;2022-07-05T12:26:18;97425.53;;;31.76;38.26
6094;BME280;19964;42.060;24.700;2022-07-05T12:28:46;97415.78;;;31.61;39.42
6094;BME280;19964;42.060;24.700;2022-07-05T12:31:20;97429.06;;;32.13;39.70
6094;BME280;19964;42.060;24.700;2022-07-05T12:33:49;97421.56;;;32.26;38.71
6094;BME280;19964;42.060;24.700;2022-07-05T12:36:18;97427.53;;;32.12;38.35
6094;BME280;19964;42.060;24.700;2022-07-05T12:38:45;97383.59;;;31.91;39.42
6094;BME280;19964;42.060;24.700;2022-07-05T12:41:20;97417.59;;;32.50;40.98
6094;BME280;19964;42.060;24.700;2022-07-05T12:43:49;97430.03;;;32.31;37.47
6094;BME280;19964;42.060;24.700;2022-07-05T12:46:16;97424.34;;;32.03;39.82
6094;BME280;19964;42.060;24.700;2022-07-05T12:48:43;97427.28;;;31.62;38.80
6094;BME280;19964;42.060;24.700;2022-07-05T12:51:12;97405.44;;;31.60;38.82
6094;BME280;19964;42.060;24.700;2022-07-05T12:53:45;97414.13;;;31.83;38.90
6094;BME280;19964;42.060;24.700;2022-07-05T12:56:29;97412.88;;;31.73;38.68
6094;BME280;19964;42.060;24.700;2022-07-05T12:59:15;97410.72;;;31.86;39.08
6094;BME280;19964;42.060;24.700;2022-07-05T13:01:44;97411.34;;;32.05;37.79
6094;BME280;19964;42.060;24.700;2022-07-05T13:04:12;97363.88;;;32.06;39.17
6094;BME280;19964;42.060;24.700;2022-07-05T13:06:42;97397.19;;;31.75;38.85
6094;BME280;19964;42.060;24.700;2022-07-05T13:09:13;97378.22;;;31.58;39.75
6094;BME280;19964;42.060;24.700;2022-07-05T13:11:41;97395.03;;;31.88;40.08